Portada
METAR-TAF:

METAR-TAF

Aeroports :

Lampedusa, Itàlia

Aeroport de Lampedusa

latitud: 35-30N, longitud: 012-36E, altitud: 16 m

Observació

L'informe es va fer fa 2 hores i 11 minuts, a les 19:50 UTC
Vent 11 kt del Est
Temperatura 17°C
Humitat 88%
Pressió 1019 hPa
Visibilitat 10 km o més
sense núvols per sota de 1500 mi sense presència de cumulonimbus.

METAR: LICD 221950Z 08011KT CAVOK 17/15 Q1019

Hora: 00:01 (22:01 UTC)

Pronòstic

L'informe es va fer fa 5 hores i 1 minuts, a les 17:00 UTC
Pronòstic vàlid del 22 a les 18 UTC al 23 a les 18 UTC
Vent 10 kt del Est/Sud-Est
Visibilitat 10 km o més
Escasses núvols a una alçada de 2000 ft

TAF: LICD 221700Z 2218/2318 11010KT 9999 FEW020

Observacions i pronòstics meteorològics de més de 4000 aeroports (METAR i TAF).

Les estacions disponibles són els punts grocs i vermells al mapa.

Posi el ratolí al punt desitjat per veure el nom de l'estació.

Feu clic per veure les observacions i els pronòstics meteorològics.

Per canviar el mapa: feu clic els botons verds amb una creu de color negre per apropar; al botó verd amb un guió per allunyar la imatge; o en les fletxes verdes per a mapes adjacents.


METAR-TAF: